createdAt,value
2019-04-14T00:02:34.104Z,1.90
2019-04-14T00:05:04.503Z,1.80
2019-04-14T00:07:34.044Z,1.80
2019-04-14T00:10:03.135Z,1.70
2019-04-14T00:12:31.934Z,1.70
2019-04-14T00:15:00.672Z,1.60
2019-04-14T00:17:30.617Z,1.70
2019-04-14T00:19:59.493Z,1.70
2019-04-14T00:22:30.631Z,1.70
2019-04-14T00:24:59.718Z,1.70
2019-04-14T00:27:28.831Z,1.70
2019-04-14T00:29:58.896Z,1.70
2019-04-14T00:32:29.085Z,1.70
2019-04-14T00:35:02.324Z,1.60
2019-04-14T00:37:42.374Z,1.60
2019-04-14T00:40:22.031Z,1.60
2019-04-14T00:42:56.649Z,1.60
2019-04-14T00:45:37.897Z,1.60
2019-04-14T00:48:07.948Z,1.60
2019-04-14T00:50:32.455Z,1.60
2019-04-14T00:53:01.458Z,1.60
2019-04-14T00:55:31.276Z,1.50
2019-04-14T00:58:01.585Z,1.50
2019-04-14T01:00:31.903Z,1.50
2019-04-14T01:03:00.859Z,1.50
2019-04-14T01:05:32.601Z,1.60
2019-04-14T01:08:00.980Z,1.60
2019-04-14T01:10:30.072Z,1.60
2019-04-14T01:12:58.891Z,1.60
2019-04-14T01:15:28.919Z,1.60
2019-04-14T01:17:59.216Z,1.60
2019-04-14T01:20:28.155Z,1.50
2019-04-14T01:22:57.448Z,1.50
2019-04-14T01:25:26.304Z,1.50
2019-04-14T01:27:55.961Z,1.50
2019-04-14T01:30:26.165Z,1.50
2019-04-14T01:32:55.101Z,1.60
2019-04-14T01:35:24.866Z,1.60
2019-04-14T01:37:55.002Z,1.60
2019-04-14T01:40:24.870Z,1.60
2019-04-14T01:42:54.829Z,1.60
2019-04-14T01:45:23.791Z,1.60
2019-04-14T01:47:53.342Z,1.70
2019-04-14T01:50:23.839Z,1.70
2019-04-14T01:53:07.466Z,1.70
2019-04-14T01:55:44.106Z,1.70
2019-04-14T01:58:14.715Z,1.70
2019-04-14T02:00:45.241Z,1.70
2019-04-14T02:03:14.911Z,1.70
2019-04-14T02:05:43.719Z,1.70
2019-04-14T02:08:13.430Z,1.80
2019-04-14T02:10:43.493Z,1.70
2019-04-14T02:13:13.336Z,1.70
2019-04-14T02:15:42.387Z,1.70
2019-04-14T02:18:12.119Z,1.70
2019-04-14T02:20:40.966Z,1.70
2019-04-14T02:23:10.366Z,1.70
2019-04-14T02:25:40.426Z,1.70
2019-04-14T02:28:09.541Z,1.70
2019-04-14T02:30:46.937Z,1.70
2019-04-14T02:33:40.316Z,1.60
2019-04-14T02:36:19.893Z,1.60
2019-04-14T02:38:41.377Z,1.60
2019-04-14T02:43:44.989Z,1.60
2019-04-14T02:46:05.876Z,1.70
2019-04-14T02:48:44.773Z,1.70
2019-04-14T02:51:15.941Z,1.70
2019-04-14T02:53:44.443Z,1.70
2019-04-14T02:58:48.233Z,1.60
2019-04-14T03:01:21.135Z,1.60
2019-04-14T03:03:41.044Z,1.50
2019-04-14T03:08:52.044Z,1.40
2019-04-14T03:11:11.834Z,1.30
2019-04-14T03:13:49.574Z,1.40
2019-04-14T03:16:13.702Z,1.30
2019-04-14T03:21:40.806Z,1.20
2019-04-14T03:24:06.648Z,1.20
2019-04-14T03:26:35.207Z,1.20
2019-04-14T03:29:11.174Z,1.20
2019-04-14T03:34:29.885Z,1.30
2019-04-14T03:39:12.472Z,1.30
2019-04-14T03:41:42.873Z,1.40
2019-04-14T03:44:10.003Z,1.40
2019-04-14T03:46:41.541Z,1.50
2019-04-14T03:49:17.882Z,1.60
2019-04-14T03:51:45.293Z,1.70
2019-04-14T03:54:03.112Z,2.20
2019-04-14T03:56:34.097Z,3.00
2019-04-14T03:59:04.124Z,4.00
2019-04-14T04:01:33.128Z,5.10
2019-04-14T04:04:03.144Z,6.10
2019-04-14T04:06:33.409Z,7.00
2019-04-14T04:09:02.342Z,7.90
2019-04-14T04:11:32.206Z,8.90
2019-04-14T04:14:01.118Z,9.70
2019-04-14T04:16:35.427Z,10.40
2019-04-14T04:19:10.596Z,10.70
2019-04-14T04:21:44.461Z,11.10
2019-04-14T04:24:32.199Z,11.70
2019-04-14T04:27:04.644Z,11.70
2019-04-14T04:29:35.155Z,10.90
2019-04-14T04:32:05.760Z,10.10
2019-04-14T04:34:42.367Z,9.80
2019-04-14T04:37:19.264Z,9.20
2019-04-14T04:39:49.796Z,9.60
2019-04-14T04:42:19.744Z,10.20
2019-04-14T04:44:48.824Z,11.20
2019-04-14T04:47:18.690Z,12.40
2019-04-14T04:49:48.916Z,13.30
2019-04-14T04:52:19.049Z,14.40
2019-04-14T04:54:47.914Z,15.20
2019-04-14T04:57:17.818Z,15.60
2019-04-14T04:59:47.409Z,16.00
2019-04-14T05:02:16.243Z,16.10
2019-04-14T05:04:45.990Z,15.50
2019-04-14T05:07:14.971Z,14.30
2019-04-14T05:09:57.761Z,12.50
2019-04-14T05:12:37.606Z,11.50
2019-04-14T05:15:09.496Z,11.00
2019-04-14T05:17:43.134Z,10.20
2019-04-14T05:20:12.035Z,10.30
2019-04-14T05:22:41.782Z,10.60
2019-04-14T05:25:10.890Z,10.60
2019-04-14T05:27:40.831Z,10.10
2019-04-14T05:30:11.053Z,9.70
2019-04-14T05:32:41.155Z,9.40
2019-04-14T05:35:10.203Z,9.30
2019-04-14T05:37:39.978Z,9.10
2019-04-14T05:40:10.166Z,8.90
2019-04-14T05:42:40.610Z,8.30
2019-04-14T05:45:09.725Z,8.00
2019-04-14T05:47:39.376Z,7.80
2019-04-14T05:50:09.541Z,7.60
2019-04-14T05:52:38.451Z,7.40
2019-04-14T05:55:08.772Z,7.20
2019-04-14T05:57:37.753Z,6.90
2019-04-14T06:00:10.363Z,6.70
2019-04-14T06:02:39.978Z,6.60
2019-04-14T06:05:11.259Z,6.50
2019-04-14T06:07:39.655Z,6.40
2019-04-14T06:10:08.867Z,6.30
2019-04-14T06:12:37.699Z,6.30
2019-04-14T06:15:07.372Z,6.30
2019-04-14T06:17:36.221Z,6.30
2019-04-14T06:20:05.483Z,6.30
2019-04-14T06:22:34.276Z,6.40
2019-04-14T06:25:03.116Z,6.50
2019-04-14T06:27:31.911Z,6.60
2019-04-14T06:30:02.304Z,6.70
2019-04-14T06:32:32.694Z,6.90
2019-04-14T06:35:12.242Z,7.00
2019-04-14T06:37:59.201Z,7.00
2019-04-14T06:40:29.658Z,7.10
2019-04-14T06:42:58.473Z,7.20
2019-04-14T06:45:27.352Z,7.20
2019-04-14T06:47:56.153Z,7.20
2019-04-14T06:50:24.916Z,7.20
2019-04-14T06:52:53.713Z,7.00
2019-04-14T06:55:22.479Z,7.10
2019-04-14T06:57:51.353Z,7.10
2019-04-14T07:00:20.208Z,7.10
2019-04-14T07:02:49.041Z,7.10
2019-04-14T07:05:17.850Z,7.40
2019-04-14T07:07:56.517Z,7.70
2019-04-14T07:10:17.125Z,7.80
2019-04-14T07:12:45.943Z,7.80
2019-04-14T07:15:14.763Z,7.90
2019-04-14T07:17:43.637Z,8.00
2019-04-14T07:20:12.527Z,8.20
2019-04-14T07:22:41.326Z,8.30
2019-04-14T07:25:10.220Z,8.60
2019-04-14T07:27:39.220Z,8.90
2019-04-14T07:30:15.836Z,9.20
2019-04-14T07:33:01.542Z,9.30
2019-04-14T07:35:43.954Z,9.70
2019-04-14T07:38:14.497Z,9.80
2019-04-14T07:41:03.371Z,10.00
2019-04-14T07:43:39.739Z,10.30
2019-04-14T07:46:12.924Z,10.50
2019-04-14T07:48:49.274Z,10.40
2019-04-14T07:51:25.925Z,10.30
2019-04-14T07:53:59.103Z,10.50
2019-04-14T07:56:45.753Z,11.00
2019-04-14T07:59:22.170Z,11.50
2019-04-14T08:01:52.670Z,12.20
2019-04-14T08:04:23.040Z,12.80
2019-04-14T08:06:53.547Z,14.20
2019-04-14T08:09:22.385Z,15.90
2019-04-14T08:11:51.168Z,17.00
2019-04-14T08:14:20.037Z,17.80
2019-04-14T08:16:48.936Z,18.50
2019-04-14T08:19:17.694Z,19.20
2019-04-14T08:21:46.512Z,19.40
2019-04-14T08:24:15.350Z,19.60
2019-04-14T08:26:44.173Z,20.10
2019-04-14T08:29:12.977Z,19.30
2019-04-14T08:31:41.771Z,17.70
2019-04-14T08:34:10.573Z,15.50
2019-04-14T08:36:39.406Z,13.70
2019-04-14T08:39:08.323Z,12.60
2019-04-14T08:41:38.797Z,12.60
2019-04-14T08:44:25.775Z,13.10
2019-04-14T08:47:11.577Z,14.20
2019-04-14T08:49:48.012Z,15.50
2019-04-14T08:52:27.409Z,15.90
2019-04-14T08:54:57.865Z,14.70
2019-04-14T08:57:28.262Z,13.10
2019-04-14T09:00:13.657Z,12.10
2019-04-14T09:02:50.076Z,11.30
2019-04-14T09:05:20.485Z,10.70
2019-04-14T09:07:56.632Z,10.20
2019-04-14T09:10:30.130Z,9.80
2019-04-14T09:12:59.682Z,9.50
2019-04-14T09:15:28.525Z,9.30
2019-04-14T09:17:57.392Z,9.20
2019-04-14T09:20:26.179Z,9.30
2019-04-14T09:22:55.052Z,9.20
2019-04-14T09:25:23.811Z,9.10
2019-04-14T09:27:52.585Z,9.10
2019-04-14T09:30:21.412Z,9.00
2019-04-14T09:32:50.183Z,9.00
2019-04-14T09:35:18.919Z,9.10
2019-04-14T09:37:47.734Z,9.20
2019-04-14T09:40:16.498Z,9.20
2019-04-14T09:42:45.279Z,9.10
2019-04-14T09:45:14.100Z,9.20
2019-04-14T09:47:42.921Z,9.20
2019-04-14T09:50:11.795Z,9.30
2019-04-14T09:52:40.674Z,9.40
2019-04-14T09:55:09.436Z,9.40
2019-04-14T09:57:38.311Z,9.40
2019-04-14T10:00:07.755Z,9.40
2019-04-14T10:02:36.560Z,9.40
2019-04-14T10:05:07.069Z,9.30
2019-04-14T10:07:36.040Z,9.10
2019-04-14T10:10:06.139Z,9.20
2019-04-14T10:12:34.959Z,9.40
2019-04-14T10:15:04.020Z,9.50
2019-04-14T10:17:32.787Z,9.60
2019-04-14T10:20:01.599Z,9.80
2019-04-14T10:22:34.045Z,9.90
2019-04-14T10:25:00.850Z,10.00
2019-04-14T10:27:29.716Z,10.00
2019-04-14T10:29:58.534Z,10.00
2019-04-14T10:32:27.365Z,10.10
2019-04-14T10:34:56.186Z,10.00
2019-04-14T10:37:25.046Z,10.00
2019-04-14T10:39:53.856Z,10.00
2019-04-14T10:42:22.677Z,9.90
2019-04-14T10:44:51.469Z,10.00
2019-04-14T10:47:20.343Z,10.00
2019-04-14T10:49:49.164Z,10.00
2019-04-14T10:52:17.989Z,10.00
2019-04-14T10:54:46.717Z,9.90
2019-04-14T10:57:15.519Z,9.90
2019-04-14T10:59:44.358Z,10.00
2019-04-14T11:02:13.250Z,9.90
2019-04-14T11:04:42.088Z,9.90
2019-04-14T11:07:12.519Z,9.90
2019-04-14T11:09:41.272Z,9.90
2019-04-14T11:12:10.056Z,9.90
2019-04-14T11:14:38.912Z,10.00
2019-04-14T11:17:07.724Z,9.90
2019-04-14T11:19:36.477Z,10.00
2019-04-14T11:22:05.280Z,10.00
2019-04-14T11:24:34.100Z,10.00
2019-04-14T11:27:02.975Z,10.00
2019-04-14T11:29:31.788Z,10.00
2019-04-14T11:32:05.207Z,10.00
2019-04-14T11:34:38.341Z,10.00
2019-04-14T11:37:09.019Z,10.10
2019-04-14T11:39:37.873Z,10.10
2019-04-14T11:42:06.748Z,10.10
2019-04-14T11:44:35.604Z,10.00
2019-04-14T11:47:04.714Z,9.90
2019-04-14T11:49:33.503Z,9.80
2019-04-14T11:52:02.283Z,9.70
2019-04-14T11:54:31.066Z,9.70
2019-04-14T11:56:59.898Z,9.70
2019-04-14T11:59:30.309Z,9.70
2019-04-14T12:02:19.102Z,9.70
2019-04-14T12:04:55.234Z,9.80
2019-04-14T12:07:25.671Z,9.80
2019-04-14T12:10:05.172Z,9.70
2019-04-14T12:12:34.027Z,9.60
2019-04-14T12:15:02.770Z,9.60
2019-04-14T12:17:31.553Z,9.60
2019-04-14T12:20:00.347Z,9.70
2019-04-14T12:22:29.169Z,9.70
2019-04-14T12:24:57.929Z,9.70
2019-04-14T12:27:26.779Z,9.60
2019-04-14T12:29:56.734Z,9.50
2019-04-14T12:32:25.920Z,9.50
2019-04-14T12:34:54.794Z,9.50
2019-04-14T12:37:23.599Z,9.50
2019-04-14T12:39:52.377Z,9.50
2019-04-14T12:42:28.565Z,9.40
2019-04-14T12:45:15.445Z,9.40
2019-04-14T12:47:51.950Z,9.40
2019-04-14T12:50:25.075Z,9.40
2019-04-14T12:52:53.815Z,9.40
2019-04-14T12:55:22.715Z,9.40
2019-04-14T12:57:59.086Z,9.40
2019-04-14T13:00:38.799Z,9.30
2019-04-14T13:03:07.576Z,9.30
2019-04-14T13:05:36.470Z,9.30
2019-04-14T13:08:05.545Z,9.30
2019-04-14T13:10:34.422Z,9.30
2019-04-14T13:13:03.167Z,9.30
2019-04-14T13:15:31.933Z,9.30
2019-04-14T13:18:00.771Z,9.30
2019-04-14T13:20:29.532Z,9.30
2019-04-14T13:22:58.404Z,9.30
2019-04-14T13:25:27.177Z,9.30
2019-04-14T13:27:56.016Z,9.20
2019-04-14T13:30:26.484Z,9.20
2019-04-14T13:32:55.291Z,9.20
2019-04-14T13:35:24.076Z,9.20
2019-04-14T13:37:52.946Z,9.20
2019-04-14T13:40:21.795Z,9.20
2019-04-14T13:42:50.536Z,9.20
2019-04-14T13:45:19.393Z,9.20
2019-04-14T13:47:48.185Z,9.20
2019-04-14T13:50:16.960Z,9.20
2019-04-14T13:52:47.339Z,9.20
2019-04-14T13:55:16.633Z,9.20
2019-04-14T13:57:45.464Z,9.20
2019-04-14T14:00:15.012Z,9.30
2019-04-14T14:02:43.976Z,9.30
2019-04-14T14:05:13.083Z,9.30
2019-04-14T14:07:41.872Z,9.30
2019-04-14T14:10:10.750Z,9.30
2019-04-14T14:12:47.771Z,9.30
2019-04-14T14:15:18.257Z,9.30
2019-04-14T14:18:05.029Z,9.30
2019-04-14T14:20:51.517Z,9.30
2019-04-14T14:23:21.939Z,9.30
2019-04-14T14:25:52.323Z,9.30
2019-04-14T14:28:21.137Z,9.30
2019-04-14T14:30:49.960Z,9.30
2019-04-14T14:33:18.816Z,9.30
2019-04-14T14:35:47.641Z,9.30
2019-04-14T14:38:16.643Z,9.30
2019-04-14T14:40:45.494Z,9.30
2019-04-14T14:43:14.268Z,9.30
2019-04-14T14:45:53.753Z,9.30
2019-04-14T14:48:26.824Z,9.30
2019-04-14T14:50:57.285Z,9.40
2019-04-14T14:53:26.223Z,9.40
2019-04-14T14:55:55.010Z,9.30
2019-04-14T14:58:23.786Z,9.20
2019-04-14T15:00:52.564Z,9.20
2019-04-14T15:03:21.373Z,9.20
2019-04-14T15:05:50.185Z,9.20
2019-04-14T15:08:18.920Z,9.00
2019-04-14T15:10:47.711Z,9.00
2019-04-14T15:13:16.480Z,9.00
2019-04-14T15:15:45.319Z,8.90
2019-04-14T15:18:14.076Z,8.90
2019-04-14T15:20:42.871Z,8.80
2019-04-14T15:23:24.023Z,8.70
2019-04-14T15:25:42.100Z,8.60
2019-04-14T15:28:11.012Z,8.50
2019-04-14T15:30:39.809Z,8.50
2019-04-14T15:33:08.580Z,8.40
2019-04-14T15:35:37.365Z,8.40
2019-04-14T15:38:06.227Z,8.40
2019-04-14T15:40:35.161Z,8.30
2019-04-14T15:43:04.030Z,8.20
2019-04-14T15:45:32.899Z,8.20
2019-04-14T15:48:01.700Z,8.10
2019-04-14T15:50:30.493Z,8.10
2019-04-14T15:52:59.270Z,8.00
2019-04-14T15:55:28.315Z,8.00
2019-04-14T15:57:58.734Z,8.00
2019-04-14T16:00:41.074Z,7.90
2019-04-14T16:03:29.807Z,7.90
2019-04-14T16:06:00.254Z,7.90
2019-04-14T16:08:39.783Z,7.90
2019-04-14T16:11:26.828Z,7.80
2019-04-14T16:14:12.782Z,7.80
2019-04-14T16:16:59.331Z,7.70
2019-04-14T16:19:32.579Z,7.60
2019-04-14T16:22:01.365Z,7.60
2019-04-14T16:24:30.209Z,7.60
2019-04-14T16:27:17.009Z,7.60
2019-04-14T16:30:04.006Z,7.50
2019-04-14T16:32:50.811Z,7.50
2019-04-14T16:35:21.212Z,7.40
2019-04-14T16:37:49.982Z,7.40
2019-04-14T16:40:18.804Z,7.30
2019-04-14T16:42:47.559Z,7.20
2019-04-14T16:45:16.469Z,7.20
2019-04-14T16:47:45.293Z,7.20
2019-04-14T16:50:14.169Z,7.10
2019-04-14T16:52:44.571Z,7.00
2019-04-14T16:55:24.186Z,7.00
2019-04-14T16:58:03.776Z,6.90
2019-04-14T17:00:38.108Z,6.80
2019-04-14T17:03:06.892Z,6.80
2019-04-14T17:05:35.662Z,6.70
2019-04-14T17:08:04.516Z,6.70
2019-04-14T17:10:33.306Z,6.60
2019-04-14T17:13:02.196Z,6.60
2019-04-14T17:15:44.883Z,6.50
2019-04-14T17:18:15.336Z,6.40
2019-04-14T17:21:02.330Z,6.30
2019-04-14T17:23:32.806Z,6.30
2019-04-14T17:26:03.232Z,6.20
2019-04-14T17:28:33.690Z,6.10
2019-04-14T17:31:10.331Z,6.00
2019-04-14T17:33:46.590Z,6.00
2019-04-14T17:36:35.107Z,5.90
2019-04-14T17:39:16.214Z,5.80
2019-04-14T17:41:46.620Z,5.60
2019-04-14T17:44:17.065Z,5.60
2019-04-14T17:46:47.574Z,5.50
2019-04-14T17:49:26.743Z,5.40
2019-04-14T17:52:13.677Z,5.40
2019-04-14T17:54:47.303Z,5.40
2019-04-14T17:57:34.137Z,5.30
2019-04-14T18:00:19.844Z,5.30
2019-04-14T18:03:06.968Z,5.20
2019-04-14T18:05:52.441Z,5.20
2019-04-14T18:08:28.794Z,5.10
2019-04-14T18:11:15.529Z,5.10
2019-04-14T18:13:49.067Z,5.00
2019-04-14T18:16:35.879Z,5.00
2019-04-14T18:19:06.517Z,4.90
2019-04-14T18:21:35.517Z,4.90
2019-04-14T18:24:04.304Z,4.90
2019-04-14T18:26:33.074Z,4.90
2019-04-14T18:29:19.912Z,4.80
2019-04-14T18:31:59.429Z,4.80
2019-04-14T18:34:29.971Z,4.80
2019-04-14T18:37:03.162Z,4.80
2019-04-14T18:39:49.853Z,4.80
2019-04-14T18:42:32.870Z,4.80
2019-04-14T18:45:09.320Z,4.70
2019-04-14T18:47:39.742Z,4.70
2019-04-14T18:50:10.143Z,4.70
2019-04-14T18:52:57.177Z,4.60
2019-04-14T18:55:44.309Z,4.60
2019-04-14T18:58:14.734Z,4.50
2019-04-14T19:01:01.638Z,4.50
2019-04-14T19:03:30.798Z,4.50
2019-04-14T19:06:00.343Z,4.40
2019-04-14T19:08:29.501Z,4.40
2019-04-14T19:11:15.134Z,4.40
2019-04-14T19:13:48.271Z,4.40
2019-04-14T19:16:24.571Z,4.30
2019-04-14T19:19:03.644Z,4.30
2019-04-14T19:21:32.798Z,4.30
2019-04-14T19:24:01.674Z,4.30
2019-04-14T19:26:31.138Z,4.20
2019-04-14T19:28:59.955Z,4.20
2019-04-14T19:31:28.800Z,4.20
2019-04-14T19:33:57.608Z,4.30
2019-04-14T19:36:26.420Z,4.20
2019-04-14T19:38:55.260Z,4.30
2019-04-14T19:41:24.126Z,4.30
2019-04-14T19:43:52.968Z,4.20
2019-04-14T19:46:21.798Z,4.20
2019-04-14T19:48:50.667Z,4.20
2019-04-14T19:51:19.532Z,4.30
2019-04-14T19:53:48.419Z,4.30
2019-04-14T19:56:17.339Z,4.30
2019-04-14T19:58:46.114Z,4.30
2019-04-14T20:01:14.952Z,4.30
2019-04-14T20:03:43.770Z,4.30
2019-04-14T20:06:12.633Z,4.30
2019-04-14T20:08:41.472Z,4.30
2019-04-14T20:11:10.374Z,4.30
2019-04-14T20:13:40.867Z,4.20
2019-04-14T20:16:14.059Z,4.20
2019-04-14T20:18:44.477Z,4.20
2019-04-14T20:21:17.610Z,4.20
2019-04-14T20:23:48.062Z,4.10
2019-04-14T20:26:18.469Z,4.20
2019-04-14T20:28:48.995Z,4.20
2019-04-14T20:31:25.514Z,4.20
2019-04-14T20:33:54.425Z,4.10
2019-04-14T20:36:23.198Z,4.10
2019-04-14T20:38:52.031Z,4.10
2019-04-14T20:41:20.887Z,4.10
2019-04-14T20:43:49.701Z,4.00
2019-04-14T20:46:18.448Z,4.00
2019-04-14T20:48:47.355Z,4.00
2019-04-14T20:51:16.178Z,4.00
2019-04-14T20:53:44.980Z,3.90
2019-04-14T20:56:13.760Z,3.90
2019-04-14T20:58:42.645Z,3.90
2019-04-14T21:01:13.053Z,3.90
2019-04-14T21:03:46.440Z,3.90
2019-04-14T21:06:33.437Z,3.90
2019-04-14T21:09:19.262Z,3.80
2019-04-14T21:11:58.923Z,3.80
2019-04-14T21:14:29.314Z,3.80
2019-04-14T21:16:59.814Z,3.80
2019-04-14T21:19:46.561Z,3.80
2019-04-14T21:22:33.715Z,3.80
2019-04-14T21:25:13.070Z,3.80
2019-04-14T21:27:59.888Z,3.80
2019-04-14T21:30:33.262Z,3.80
2019-04-14T21:33:09.452Z,3.80
2019-04-14T21:35:54.872Z,3.80
2019-04-14T21:38:42.054Z,3.80
2019-04-14T21:41:15.399Z,3.80
2019-04-14T21:43:44.205Z,3.80
2019-04-14T21:46:14.041Z,3.70
2019-04-14T21:48:42.817Z,3.70
2019-04-14T21:51:11.559Z,3.60
2019-04-14T21:53:40.499Z,3.60
2019-04-14T21:56:13.515Z,3.60
2019-04-14T21:58:44.392Z,3.60
2019-04-14T22:01:39.741Z,3.60
2019-04-14T22:04:26.808Z,3.60
2019-04-14T22:06:57.254Z,3.50
2019-04-14T22:09:34.278Z,3.50
2019-04-14T22:12:04.721Z,3.50
2019-04-14T22:14:33.531Z,3.50
2019-04-14T22:17:02.403Z,3.50
2019-04-14T22:19:31.290Z,3.50
2019-04-14T22:22:00.026Z,3.50
2019-04-14T22:24:28.809Z,3.40
2019-04-14T22:26:57.595Z,3.40
2019-04-14T22:29:26.505Z,3.40
2019-04-14T22:31:55.354Z,3.30
2019-04-14T22:34:24.212Z,3.30
2019-04-14T22:36:52.985Z,3.30
2019-04-14T22:39:21.778Z,3.30
2019-04-14T22:41:50.583Z,3.30
2019-04-14T22:44:19.383Z,3.30
2019-04-14T22:46:48.251Z,3.30
2019-04-14T22:49:17.104Z,3.20
2019-04-14T22:51:45.847Z,3.20
2019-04-14T22:54:14.737Z,3.20
2019-04-14T22:56:43.529Z,3.20
2019-04-14T22:59:12.334Z,3.20
2019-04-14T23:01:42.833Z,3.10
2019-04-14T23:04:18.985Z,3.10
2019-04-14T23:06:55.429Z,3.10
2019-04-14T23:09:31.319Z,3.10
2019-04-14T23:12:11.353Z,3.00
2019-04-14T23:14:50.968Z,3.00
2019-04-14T23:17:36.528Z,3.00
2019-04-14T23:20:14.290Z,3.00
2019-04-14T23:23:01.395Z,3.00
2019-04-14T23:25:30.179Z,3.00
2019-04-14T23:27:59.017Z,2.90
2019-04-14T23:30:27.813Z,2.90
2019-04-14T23:32:58.048Z,2.90
2019-04-14T23:35:26.781Z,2.90
2019-04-14T23:37:55.552Z,2.90
2019-04-14T23:40:24.296Z,2.90
2019-04-14T23:42:53.085Z,2.80
2019-04-14T23:45:21.826Z,2.90
2019-04-14T23:47:50.740Z,2.90
2019-04-14T23:50:19.532Z,2.80
2019-04-14T23:52:48.332Z,2.80
2019-04-14T23:55:17.100Z,2.80
2019-04-14T23:57:45.912Z,2.80
